Stations météo

réclame
Mon MeteoGroup
Lekeitio, Espagne (8024): Température de l'air & dewpoint: 13.10.2018 11:00:00 - 19.10.2018 11:00:00 (CEST)Lekeitio, Espagne (8024): Vitesse du vent & gusts: 13.10.2018 11:00:00 - 19.10.2018 11:00:00 (CEST)Lekeitio, Espagne (8024): Direction du vent: 13.10.2018 11:00:00 - 19.10.2018 11:00:00 (CEST)Lekeitio, Espagne (8024): Quantités de précipitations: 13.10.2018 11:00:00 - 19.10.2018 11:00:00 (CEST)
Date & Time tt [°C] td [°C] ff [km/h] ff [knt] fx [km/h] fx [knt] dd rr [mm]
19.10.2018 11:00:00 17,4 17,2 16 8 26 14 WNW 0,0
19.10.2018 10:00:00 16,7 16,5 16 8 27 14 NW 0,0
19.10.2018 09:00:00 16,1 15,9 14 7 26 14 WNW 0,0
19.10.2018 08:00:00 16,8 16,6 15 8 37 20 W -
19.10.2018 07:00:00 16,7 16,5 22 12 33 18 WNW 0,0
19.10.2018 06:00:00 16,8 16,6 22 12 39 21 WNW 0,0
19.10.2018 05:00:00 16,2 16,0 26 14 32 18 NW 0,0
19.10.2018 04:00:00 16,8 16,6 21 11 34 18 W 0,0
19.10.2018 03:00:00 16,5 16,3 18 10 36 19 WNW 0,0
19.10.2018 02:00:00 16,5 16,3 23 13 36 20 WNW -
19.10.2018 01:00:00 16,2 16,0 26 14 40 22 NW 0,0
19.10.2018 00:00:00 16,2 16,0 31 17 38 20 WNW 0,0
18.10.2018 23:00:00 16,0 15,8 26 14 34 18 WNW 0,0
18.10.2018 22:00:00 16,3 16,1 23 12 30 16 NW 0,0
18.10.2018 21:00:00 16,6 16,4 16 9 26 14 NW 0,0
18.10.2018 20:00:00 16,3 16,1 21 11 25 14 NW -
18.10.2018 19:00:00 16,9 16,7 17 9 24 13 WNW 0,0
18.10.2018 18:00:00 17,0 16,8 16 9 18 10 NW 0,0
18.10.2018 17:00:00 17,4 17,2 11 6 20 11 WNW 0,0
18.10.2018 16:00:00 16,9 16,7 12 7 19 11 WNW 0,0
18.10.2018 15:00:00 16,9 16,7 16 9 19 11 NW 0,0
18.10.2018 14:00:00 16,7 16,5 13 7 22 12 WNW -
18.10.2018 13:00:00 16,4 16,2 13 7 19 10 WNW 0,0
18.10.2018 12:00:00 16,4 16,2 13 7 18 10 WNW 0,0
18.10.2018 11:00:00 16,1 15,9 14 7 18 10 WNW 0,0
18.10.2018 10:00:00 16,2 16,0 12 7 16 9 WNW 0,0
18.10.2018 09:00:00 16,1 15,9 5 3 13 7 W 0,0
18.10.2018 08:00:00 16,0 15,8 8 4 11 6 WNW -
18.10.2018 07:00:00 16,2 16,0 5 3 10 5 W 0,0
18.10.2018 06:00:00 16,1 15,9 8 4 10 5 NW 0,0
18.10.2018 05:00:00 16,2 16,0 6 3 9 5 NNE 0,0
18.10.2018 04:00:00 16,3 16,1 2 1 5 3 E 0,0
18.10.2018 03:00:00 16,4 16,2 4 2 6 3 E 0,0
18.10.2018 02:00:00 16,5 16,3 2 1 10 5 E -
18.10.2018 01:00:00 16,7 16,5 4 2 9 5 NE 0,0
18.10.2018 00:00:00 16,2 16,0 4 2 10 6 WNW 0,0
17.10.2018 23:00:00 16,3 16,1 5 3 7 4 WNW 0,0
17.10.2018 22:00:00 16,5 16,3 4 2 11 6 S 0,0
17.10.2018 21:00:00 16,0 15,8 8 4 16 8 S 0,0
17.10.2018 20:00:00 16,3 16,1 11 6 16 9 SE -
17.10.2018 19:00:00 16,7 16,5 7 4 17 9 SE 0,0
17.10.2018 18:00:00 17,1 16,9 5 3 16 9 SE 0,0
17.10.2018 17:00:00 17,9 17,7 3 2 16 9 SSE 0,0
17.10.2018 16:00:00 19,5 18,8 5 3 13 7 SE 0,0
17.10.2018 15:00:00 18,1 17,9 2 1 10 6 E 0,0
17.10.2018 14:00:00 18,4 18,2 3 2 13 7 ESE -
17.10.2018 13:00:00 17,6 17,4 7 4 14 7 ESE 0,0
17.10.2018 12:00:00 16,7 16,5 9 5 18 10 SE 0,0
17.10.2018 11:00:00 16,2 16,0 11 6 15 8 SSE 0,0
17.10.2018 10:00:00 14,7 14,5 8 5 11 6 S 0,0
17.10.2018 09:00:00 13,3 13,1 8 4 12 6 S 0,0
17.10.2018 08:00:00 13,2 13,0 10 5 14 7 S -
17.10.2018 07:00:00 13,5 13,3 10 5 16 8 S 0,0
17.10.2018 06:00:00 13,6 13,4 10 5 16 8 S 0,0
17.10.2018 05:00:00 14,3 14,1 9 5 13 7 S 0,0
17.10.2018 04:00:00 14,5 14,3 6 4 13 7 S 0,0
17.10.2018 03:00:00 13,8 13,6 12 6 16 9 S 0,0
17.10.2018 02:00:00 14,5 14,3 8 4 10 6 S -
17.10.2018 01:00:00 14,5 14,3 6 3 10 5 SSE 0,0
17.10.2018 00:00:00 14,7 14,5 7 4 16 8 S 0,0
16.10.2018 23:00:00 15,1 14,9 10 5 15 8 S 0,0
16.10.2018 22:00:00 15,2 15,0 10 5 16 8 SSE 0,0
16.10.2018 21:00:00 14,4 14,2 6 3 9 5 S 0,0
16.10.2018 20:00:00 15,6 15,4 0 0 6 3 N -
16.10.2018 19:00:00 16,4 16,2 2 1 6 3 E 0,0
16.10.2018 18:00:00 18,2 18,0 2 1 9 5 E 0,0
16.10.2018 17:00:00 17,0 16,8 4 2 10 5 NNE 0,0
16.10.2018 16:00:00 17,1 16,9 10 5 21 11 N 0,0
16.10.2018 15:00:00 16,7 16,5 16 8 22 12 WNW 0,0
16.10.2018 14:00:00 16,2 16,0 16 8 18 10 NW -
16.10.2018 13:00:00 16,2 16,0 9 5 13 7 NW 0,0
16.10.2018 12:00:00 16,2 16,0 10 5 12 6 NW 0,0
16.10.2018 11:00:00 16,6 16,4 6 3 8 4 W 0,0
16.10.2018 10:00:00 17,2 17,0 4 2 13 7 W 0,0
16.10.2018 09:00:00 15,7 15,5 9 5 12 7 WNW 0,0
16.10.2018 08:00:00 15,7 15,5 6 4 11 6 WNW -
16.10.2018 07:00:00 15,7 15,5 7 4 11 6 WNW 0,0
16.10.2018 06:00:00 15,8 15,6 10 5 16 9 WNW 0,0
16.10.2018 05:00:00 15,7 15,5 11 6 16 8 W 0,0
16.10.2018 04:00:00 15,5 15,3 6 3 11 6 W 0,0
16.10.2018 03:00:00 14,4 14,2 4 2 9 5 SSW 0,0
16.10.2018 02:00:00 15,3 15,1 6 4 9 5 W -
16.10.2018 01:00:00 14,8 14,6 5 3 8 5 W 0,0
16.10.2018 00:00:00 14,6 14,4 0 0 4 2 S 0,0
15.10.2018 23:00:00 15,4 15,2 3 2 15 8 SSW 0,0
15.10.2018 22:00:00 16,1 15,9 9 5 15 8 SSE 0,0
15.10.2018 21:00:00 16,5 16,3 5 3 12 6 SE 0,0
15.10.2018 20:00:00 16,4 16,2 5 3 15 8 SE -
15.10.2018 19:00:00 16,5 16,3 9 5 17 9 SE 0,0
15.10.2018 18:00:00 17,4 16,8 6 3 15 8 SE 0,0
15.10.2018 17:00:00 18,7 17,0 8 4 13 7 SE 0,0
15.10.2018 16:00:00 19,3 17,3 3 2 14 7 SE 0,0
15.10.2018 15:00:00 19,1 16,5 4 2 15 8 SE 0,0
15.10.2018 14:00:00 18,1 16,3 4 2 15 8 SE -
15.10.2018 13:00:00 17,8 14,9 4 2 14 8 SE 0,0
15.10.2018 12:00:00 17,5 13,8 5 3 20 11 SE 0,0
15.10.2018 11:00:00 15,9 12,3 14 8 23 12 SSE 0,0
15.10.2018 10:00:00 14,7 11,7 14 8 26 14 S 0,0
15.10.2018 09:00:00 11,9 11,6 12 6 18 10 S 0,0
15.10.2018 08:00:00 13,0 11,7 11 6 18 10 S -
15.10.2018 07:00:00 14,9 11,7 5 3 17 9 WSW 0,0
15.10.2018 06:00:00 14,4 11,7 8 4 24 13 SW 0,0
15.10.2018 05:00:00 14,3 11,6 7 4 24 13 SW 0,0
15.10.2018 04:00:00 14,5 12,0 10 5 32 17 WSW 0,0
15.10.2018 03:00:00 14,2 12,4 8 4 31 17 WSW 0,0
15.10.2018 02:00:00 14,7 13,7 7 4 25 14 W -
15.10.2018 01:00:00 14,9 13,6 12 7 33 18 W 0,0
15.10.2018 00:00:00 15,2 13,1 14 7 30 16 W 0,0
14.10.2018 23:00:00 14,8 12,5 7 4 29 16 WSW 0,0
14.10.2018 22:00:00 15,0 12,1 9 5 31 17 WSW 0,0
14.10.2018 21:00:00 15,1 12,2 15 8 45 24 W 0,0
14.10.2018 20:00:00 14,7 12,0 19 11 68 37 W -
14.10.2018 19:00:00 14,3 13,5 14 8 40 22 W 0,0
14.10.2018 18:00:00 14,4 14,1 18 10 38 21 WNW 0,0
14.10.2018 17:00:00 14,6 14,1 19 10 41 22 W 0,0
14.10.2018 16:00:00 14,4 14,2 24 13 44 24 WNW 0,1
14.10.2018 15:00:00 14,0 13,8 23 12 61 33 W 0,1
14.10.2018 14:00:00 13,8 13,6 23 12 68 37 W -
14.10.2018 13:00:00 14,2 14,0 22 12 58 31 W 3,5
14.10.2018 12:00:00 13,6 13,4 24 13 71 38 W 8,3
14.10.2018 11:00:00 15,2 15,0 40 21 71 38 WNW 0,8
14.10.2018 10:00:00 16,1 15,9 42 23 59 32 NW 0,0
14.10.2018 09:00:00 16,1 15,9 28 15 69 37 WNW 0,0
14.10.2018 08:00:00 17,1 16,9 22 12 37 20 WNW -
14.10.2018 07:00:00 17,6 17,4 10 5 27 15 SE 0,0
14.10.2018 06:00:00 17,6 17,4 23 12 39 21 W 0,0
14.10.2018 05:00:00 18,1 17,9 34 18 71 39 WNW 0,0
14.10.2018 04:00:00 23,5 16,8 16 9 32 18 SE 0,0
14.10.2018 03:00:00 24,1 16,9 18 10 46 25 SE 0,0
14.10.2018 02:00:00 24,8 17,0 18 10 43 23 SE -
14.10.2018 01:00:00 24,9 17,4 14 8 37 20 SE 0,0
14.10.2018 00:00:00 24,8 18,0 8 4 34 18 SE 0,0
13.10.2018 23:00:00 24,6 18,3 16 9 26 14 SE 0,0
13.10.2018 22:00:00 24,2 17,7 10 5 17 9 ESE 0,0
13.10.2018 21:00:00 24,0 18,2 13 7 18 10 SSE 0,0
13.10.2018 20:00:00 24,3 17,5 9 5 12 6 SSE -
13.10.2018 19:00:00 25,3 16,2 10 5 21 11 SE 0,0
13.10.2018 18:00:00 27,6 15,9 17 9 29 16 SSE 0,0
13.10.2018 17:00:00 28,1 16,1 13 7 26 14 S 0,0
13.10.2018 16:00:00 28,4 16,0 10 5 29 16 S 0,0
13.10.2018 15:00:00 27,7 16,6 14 7 36 20 SSE 0,0
13.10.2018 14:00:00 - - - - - - - -
13.10.2018 13:00:00 26,1 15,5 22 12 67 36 S 0,0
13.10.2018 12:00:00 25,5 15,2 25 13 72 39 S 0,0
13.10.2018 11:00:00 24,9 14,7 27 15 44 24 S 0,0

tt = Température de l'air
td = dewpoint
ff = Vitesse du vent
fx = gusts
dd = Direction du vent
rr = Quantités de précipitations

stations d'obs. à proximité